Time;durP1;ratioP1;P1;durP2;ratioP2;P2;SDS_P1;SDS_P2;PMS_P1;PMS_P2;Temp;Humidity;BMP_temperature;BMP_pressure;BME280_temperature;BME280_humidity;BME280_pressure;Samples;Min_cycle;Max_cycle;Signal;HPM_P1;HPM_P2
2022/03/11 00:02:15;;;;;;;12.18;8.43;;;;;;;5.67;44.39;101601.13;4992096;28;20025;-90
2022/03/11 00:04:41;;;;;;;17.88;8.63;;;;;;;5.54;45.01;101584.63;4985888;28;20034;-91
2022/03/11 00:07:07;;;;;;;14.32;9.05;;;;;;;5.58;44.77;101596.00;4987187;28;20099;-90
2022/03/11 00:09:33;;;;;;;15.15;9.88;;;;;;;5.54;44.69;101597.81;4990988;28;20033;-89
2022/03/11 00:11:58;;;;;;;15.88;9.30;;;;;;;5.49;44.76;101591.75;4991918;28;20042;-91
2022/03/11 00:14:24;;;;;;;16.95;9.35;;;;;;;5.48;44.81;101588.25;4990165;28;20076;-90
2022/03/11 00:16:49;;;;;;;15.63;9.93;;;;;;;5.44;44.88;101583.94;4982241;28;20473;-92
2022/03/11 00:19:14;;;;;;;15.63;9.75;;;;;;;5.49;45.00;101583.84;4978522;28;21853;-91
2022/03/11 00:21:40;;;;;;;15.95;10.18;;;;;;;5.50;45.08;101582.94;4983752;28;20033;-90
2022/03/11 00:24:05;;;;;;;16.58;9.55;;;;;;;5.46;45.79;101587.41;4991139;28;20018;-91
2022/03/11 00:26:32;;;;;;;19.05;9.80;;;;;;;5.39;44.81;101572.59;4982142;28;20039;-91
2022/03/11 00:28:57;;;;;;;16.27;10.13;;;;;;;5.43;45.43;101587.47;4989472;28;20092;-91
2022/03/11 00:31:22;;;;;;;16.17;9.30;;;;;;;5.38;47.14;101578.75;4985314;28;20031;-91
2022/03/11 00:33:48;;;;;;;15.88;10.02;;;;;;;5.38;45.98;101580.50;4989214;28;20026;-91
2022/03/11 00:36:14;;;;;;;17.80;10.38;;;;;;;5.35;45.73;101578.81;4982537;28;20480;-91
2022/03/11 00:38:39;;;;;;;19.17;10.32;;;;;;;5.32;45.60;101570.94;4989857;28;20038;-92
2022/03/11 00:41:04;;;;;;;20.80;10.43;;;;;;;5.33;45.52;101575.31;4989505;28;20030;-91
2022/03/11 00:43:29;;;;;;;16.70;10.35;;;;;;;5.25;45.44;101572.81;4991168;28;20022;-92
2022/03/11 00:45:55;;;;;;;20.08;10.50;;;;;;;5.29;45.59;101575.41;4985779;28;20038;-92
2022/03/11 00:48:20;;;;;;;19.35;10.48;;;;;;;5.28;46.07;101573.66;4990656;28;20092;-91
2022/03/11 00:50:48;;;;;;;20.92;10.35;;;;;;;5.26;46.18;101576.31;4993484;28;20022;-90
2022/03/11 00:53:14;;;;;;;22.23;11.20;;;;;;;5.27;46.05;101569.25;4988078;28;20034;-91
2022/03/11 00:55:39;;;;;;;19.08;11.25;;;;;;;5.25;45.99;101561.38;4986992;28;20368;-91
2022/03/11 00:58:05;;;;;;;15.23;10.20;;;;;;;5.26;45.97;101573.66;4987938;28;20062;-92
2022/03/11 01:00:31;;;;;;;17.60;10.45;;;;;;;5.22;45.96;101558.78;4987605;28;20054;-91
2022/03/11 01:02:56;;;;;;;17.60;10.27;;;;;;;5.22;46.24;101561.41;4990219;28;20030;-91
2022/03/11 01:05:22;;;;;;;19.75;10.63;;;;;;;5.17;45.83;101552.72;4987151;28;20527;-91
2022/03/11 01:07:48;;;;;;;16.33;9.93;;;;;;;5.14;45.89;101548.38;4987200;28;20065;-92
2022/03/11 01:10:14;;;;;;;16.45;9.88;;;;;;;5.18;46.13;101554.47;4988504;28;20431;-92
2022/03/11 01:12:39;;;;;;;18.70;10.95;;;;;;;5.11;45.87;101540.50;4970449;28;20221;-91
2022/03/11 01:15:07;;;;;;;16.92;10.25;;;;;;;5.13;45.73;101545.75;4983576;28;20043;-92
2022/03/11 01:17:32;;;;;;;15.90;10.02;;;;;;;5.09;46.04;101541.41;4974799;28;20102;-92
2022/03/11 01:19:58;;;;;;;15.10;10.38;;;;;;;5.10;46.20;101541.41;4982838;28;20034;-92
2022/03/11 01:22:23;;;;;;;16.10;10.38;;;;;;;5.07;45.91;101540.59;4984944;28;20027;-92
2022/03/11 01:24:48;;;;;;;18.33;10.68;;;;;;;5.05;45.93;101539.72;4979258;28;20026;-90
2022/03/11 01:27:14;;;;;;;17.92;10.60;;;;;;;5.03;46.41;101536.25;4987542;28;20526;-90
2022/03/11 01:29:39;;;;;;;16.83;10.23;;;;;;;4.99;46.25;101530.16;4989623;28;20030;-92
2022/03/11 01:32:05;;;;;;;17.02;9.90;;;;;;;4.96;46.35;101527.56;4989563;28;20033;-91
2022/03/11 01:34:30;;;;;;;16.63;10.32;;;;;;;4.95;46.58;101531.13;4988026;28;20045;-91
2022/03/11 01:36:55;;;;;;;19.17;10.32;;;;;;;4.85;46.37;101514.56;4986972;28;20083;-91
2022/03/11 01:39:21;;;;;;;17.58;10.52;;;;;;;4.85;46.41;101514.56;4981210;28;20385;-91
2022/03/11 01:41:46;;;;;;;18.42;10.13;;;;;;;4.85;46.50;101511.03;4988603;28;20070;-90
2022/03/11 01:44:11;;;;;;;20.65;10.50;;;;;;;4.83;46.32;101504.94;4979993;28;20499;-90
2022/03/11 01:46:37;;;;;;;21.75;10.32;;;;;;;4.86;46.56;101511.03;4984763;28;20484;-91
2022/03/11 01:49:07;;;;;;;17.88;10.68;;;;;;;4.83;46.33;101502.28;4984707;28;20527;-90
2022/03/11 01:51:34;;;;;;;17.63;9.85;;;;;;;4.82;46.54;101500.56;4991936;28;20045;-90
2022/03/11 01:53:59;;;;;;;16.95;9.73;;;;;;;4.76;46.63;101501.50;4980639;28;20026;-91
2022/03/11 01:56:26;;;;;;;18.00;10.25;;;;;;;4.77;46.48;101495.38;4990677;28;20451;-90
2022/03/11 01:58:53;;;;;;;19.58;9.70;;;;;;;4.73;46.86;101489.28;4992627;28;20483;-91
2022/03/11 02:01:19;;;;;;;16.63;9.75;;;;;;;4.70;46.65;101473.50;4988164;28;20022;-91
2022/03/11 02:03:45;;;;;;;15.98;9.68;;;;;;;4.66;46.63;101474.44;4993430;28;20031;-91
2022/03/11 02:06:13;;;;;;;18.48;10.43;;;;;;;4.71;46.51;101474.34;4991771;28;20037;-90
2022/03/11 02:08:38;;;;;;;17.75;10.63;;;;;;;4.70;46.54;101467.34;4993917;28;20031;-90
2022/03/11 02:11:03;;;;;;;14.93;10.18;;;;;;;4.68;46.56;101464.75;4994052;28;20033;-90
2022/03/11 02:13:50;;;;;;;18.25;10.48;;;;;;;4.59;46.55;101459.59;4993172;28;20121;-91
2022/03/11 02:16:22;;;;;;;19.20;10.05;;;;;;;4.58;47.03;101457.00;4992330;28;20476;-91
2022/03/11 02:18:48;;;;;;;15.93;9.68;;;;;;;4.54;46.79;101456.19;4981791;28;20033;-91
2022/03/11 02:21:15;;;;;;;18.23;9.98;;;;;;;4.43;47.25;101445.81;4992542;28;20022;-91
2022/03/11 02:23:55;;;;;;;15.68;10.00;;;;;;;4.44;47.21;101455.47;4993560;28;20451;-92
2022/03/11 02:26:22;;;;;;;17.20;10.05;;;;;;;4.41;47.29;101450.22;4988770;28;20514;-91
2022/03/11 02:28:50;;;;;;;19.77;10.75;;;;;;;4.42;47.31;101451.09;4982860;28;20037;-90
2022/03/11 02:31:15;;;;;;;16.02;10.35;;;;;;;4.43;47.24;101444.91;4993840;28;20045;-90
2022/03/11 02:33:41;;;;;;;20.75;11.10;;;;;;;4.38;47.29;101442.38;4989833;28;20468;-90
2022/03/11 02:36:06;;;;;;;20.77;9.85;;;;;;;4.37;47.21;101434.50;4991400;28;20029;-91
2022/03/11 02:38:33;;;;;;;23.48;11.93;;;;;;;4.32;47.49;101444.25;4989324;28;20504;-91
2022/03/11 02:40:58;;;;;;;18.17;10.00;;;;;;;4.27;47.49;101433.78;4993964;28;20026;-91
2022/03/11 02:43:24;;;;;;;18.30;10.07;;;;;;;4.23;47.61;101432.94;4992851;28;20036;-90
2022/03/11 02:45:50;;;;;;;16.17;10.02;;;;;;;4.26;47.52;101437.28;4988914;28;20064;-91
2022/03/11 02:48:15;;;;;;;18.10;10.35;;;;;;;4.22;48.21;101425.03;4981851;28;20063;-91
2022/03/11 02:50:40;;;;;;;17.33;10.05;;;;;;;4.20;47.59;101424.22;4983399;28;20065;-92
2022/03/11 02:53:06;;;;;;;15.48;9.45;;;;;;;4.15;48.37;101421.66;4992404;28;20092;-91
2022/03/11 02:55:31;;;;;;;17.63;10.57;;;;;;;4.16;47.71;101428.66;4992755;28;20042;-92
2022/03/11 02:57:56;;;;;;;18.30;10.52;;;;;;;4.14;48.28;101426.91;4992595;28;20042;-91
2022/03/11 03:00:22;;;;;;;16.60;9.52;;;;;;;4.04;48.17;101418.28;4992235;28;20034;-91
2022/03/11 03:02:47;;;;;;;15.07;9.57;;;;;;;4.03;48.39;101418.34;4980489;28;20034;-91
2022/03/11 03:05:13;;;;;;;16.35;9.80;;;;;;;4.05;47.99;101417.41;4984839;28;20038;-91
2022/03/11 03:07:39;;;;;;;16.95;10.10;;;;;;;4.03;48.34;101419.19;4991554;28;20047;-92
2022/03/11 03:10:05;;;;;;;19.17;10.32;;;;;;;3.99;48.12;101421.00;4992689;28;20026;-92
2022/03/11 03:12:30;;;;;;;18.08;9.90;;;;;;;3.95;47.91;101414.03;4985877;28;20042;-92
2022/03/11 03:14:55;;;;;;;16.35;9.82;;;;;;;3.99;48.20;101412.22;4987035;28;20030;-91
2022/03/11 03:17:23;;;;;;;18.02;9.52;;;;;;;3.91;48.78;101411.47;4973280;28;20042;-91
2022/03/11 03:19:49;;;;;;;16.52;9.55;;;;;;;3.93;48.19;101413.19;4987596;28;20084;-91
2022/03/11 03:22:15;;;;;;;17.15;9.30;;;;;;;3.88;48.23;101400.97;4993222;28;20050;-92
2022/03/11 03:24:40;;;;;;;15.13;8.95;;;;;;;3.95;48.13;101413.16;4988437;28;20030;-91
2022/03/11 03:27:05;;;;;;;15.70;9.18;;;;;;;3.92;48.34;101419.34;4978255;28;20034;-92
2022/03/11 03:29:31;;;;;;;15.30;9.18;;;;;;;3.84;47.99;101407.19;4978756;28;20030;-91
2022/03/11 03:31:58;;;;;;;17.48;9.60;;;;;;;3.84;49.31;101405.41;4992098;28;20033;-91
2022/03/11 03:34:29;;;;;;;15.50;9.52;;;;;;;3.85;48.00;101416.84;4991265;28;20026;-91
2022/03/11 03:36:58;;;;;;;17.08;9.80;;;;;;;3.85;48.44;101409.81;4991511;28;20034;-91
2022/03/11 03:39:24;;;;;;;15.02;9.38;;;;;;;3.83;48.18;101400.19;4990704;28;20034;-91
2022/03/11 03:41:50;;;;;;;15.00;8.65;;;;;;;3.89;48.09;101406.25;4981148;28;20336;-91
2022/03/11 03:44:15;;;;;;;14.85;8.90;;;;;;;3.88;48.04;101403.59;4991539;28;20041;-92
2022/03/11 03:46:40;;;;;;;15.45;9.07;;;;;;;3.86;48.14;101398.38;4990760;28;20029;-90
2022/03/11 03:49:05;;;;;;;15.55;9.75;;;;;;;3.85;47.87;101401.03;4991869;28;20041;-91
2022/03/11 03:51:31;;;;;;;18.90;9.25;;;;;;;3.86;47.95;101392.25;4992415;28;20023;-91
2022/03/11 03:53:57;;;;;;;14.10;8.80;;;;;;;3.83;47.95;101397.53;4992000;28;20037;-91
2022/03/11 03:56:22;;;;;;;14.88;8.93;;;;;;;3.84;47.80;101402.78;4986545;28;20039;-91
2022/03/11 03:58:47;;;;;;;14.38;8.68;;;;;;;3.82;48.10;101391.41;4978025;28;20333;-90
2022/03/11 04:01:12;;;;;;;19.40;9.75;;;;;;;3.85;47.93;101396.66;4991271;28;20029;-90
2022/03/11 04:03:38;;;;;;;17.60;9.18;;;;;;;3.85;47.60;101396.66;4986289;28;20110;-90
2022/03/11 04:06:04;;;;;;;16.02;9.00;;;;;;;3.81;48.05;101392.31;4989416;28;20037;-90
2022/03/11 04:08:30;;;;;;;14.95;9.25;;;;;;;3.87;47.43;101399.25;4979457;28;20030;-91
2022/03/11 04:10:55;;;;;;;17.15;9.57;;;;;;;3.78;47.91;101386.22;4991349;28;20030;-90
2022/03/11 04:13:21;;;;;;;13.80;8.88;;;;;;;3.83;47.68;101394.91;4990639;28;20068;-91
2022/03/11 04:15:46;;;;;;;13.48;7.97;;;;;;;3.84;47.72;101389.59;4989440;28;20045;-91
2022/03/11 04:18:11;;;;;;;15.82;9.00;;;;;;;3.81;47.75;101397.56;4972978;28;20033;-90
2022/03/11 04:20:36;;;;;;;16.98;9.05;;;;;;;3.82;47.96;101393.19;4989296;28;20076;-91
2022/03/11 04:23:01;;;;;;;17.13;8.77;;;;;;;3.86;47.70;101390.47;4991303;28;20053;-91
2022/03/11 04:25:27;;;;;;;13.60;8.15;;;;;;;3.86;47.71;101392.25;4989480;28;20129;-92
2022/03/11 04:27:52;;;;;;;15.13;8.70;;;;;;;3.83;47.88;101389.66;4990226;28;20034;-91
2022/03/11 04:30:18;;;;;;;15.30;8.68;;;;;;;3.79;48.12;101387.94;4990768;28;20392;-91
2022/03/11 04:32:43;;;;;;;11.73;7.72;;;;;;;3.73;48.21;101381.00;4980684;28;20030;-91
2022/03/11 04:35:09;;;;;;;14.70;8.63;;;;;;;3.77;47.82;101380.09;4987157;28;20218;-90
2022/03/11 04:37:35;;;;;;;16.10;8.27;;;;;;;3.83;47.82;101387.88;4990564;28;20037;-90
2022/03/11 04:40:00;;;;;;;13.23;9.00;;;;;;;3.83;47.52;101373.84;4983919;28;20023;-90
2022/03/11 04:42:25;;;;;;;13.93;8.18;;;;;;;3.79;47.85;101367.75;4982516;28;20053;-91
2022/03/11 04:44:51;;;;;;;16.42;8.90;;;;;;;3.79;47.54;101377.41;4989960;28;20031;-91
2022/03/11 04:47:16;;;;;;;13.85;8.50;;;;;;;3.77;47.58;101377.44;4983835;28;20504;-91
2022/03/11 04:49:41;;;;;;;16.15;8.95;;;;;;;3.72;47.81;101373.97;4983040;28;20034;-92
2022/03/11 04:52:07;;;;;;;14.00;8.55;;;;;;;3.73;47.75;101381.88;4991288;28;20030;-90
2022/03/11 04:54:33;;;;;;;12.10;8.15;;;;;;;3.74;48.07;101377.47;4991587;28;20450;-91
2022/03/11 04:56:58;;;;;;;12.18;7.93;;;;;;;3.74;47.85;101380.97;4978797;28;20038;-91
2022/03/11 04:59:23;;;;;;;14.73;8.85;;;;;;;3.72;48.32;101376.63;4990278;28;20034;-90
2022/03/11 05:01:48;;;;;;;15.25;8.45;;;;;;;3.67;48.01;101376.69;4991587;28;20074;-90
2022/03/11 05:04:14;;;;;;;13.00;8.57;;;;;;;3.69;48.15;101381.94;4990862;28;20041;-90
2022/03/11 05:06:39;;;;;;;14.45;8.05;;;;;;;3.68;47.89;101370.56;4986709;28;20140;-91
2022/03/11 05:09:04;;;;;;;13.75;8.43;;;;;;;3.63;48.06;101372.34;4989391;28;20360;-91
2022/03/11 05:11:29;;;;;;;16.83;9.13;;;;;;;3.65;48.35;101380.25;4988976;28;20041;-91
2022/03/11 05:13:55;;;;;;;13.60;8.35;;;;;;;3.61;48.31;101370.66;4989908;28;20510;-91
2022/03/11 05:16:20;;;;;;;11.48;7.72;;;;;;;3.62;48.29;101373.25;4989725;28;20030;-92
2022/03/11 05:18:46;;;;;;;12.85;7.63;;;;;;;3.70;47.91;101384.53;4990259;28;20030;-91
2022/03/11 05:21:12;;;;;;;13.02;8.00;;;;;;;3.61;48.17;101368.88;4985747;28;20031;-91
2022/03/11 05:23:37;;;;;;;12.27;7.88;;;;;;;3.64;48.19;101375.88;4975393;28;20077;-91
2022/03/11 05:26:03;;;;;;;14.95;8.23;;;;;;;3.65;48.64;101370.59;4986178;28;20034;-91
2022/03/11 05:28:28;;;;;;;15.85;9.07;;;;;;;3.62;48.48;101361.84;4988238;28;20038;-92
2022/03/11 05:30:53;;;;;;;14.88;8.00;;;;;;;3.67;48.37;101363.53;4988558;28;20032;-91
2022/03/11 05:33:19;;;;;;;13.57;8.15;;;;;;;3.71;48.40;101367.84;4970536;28;20058;-92
2022/03/11 05:35:44;;;;;;;14.88;8.02;;;;;;;3.68;48.51;101361.78;4985969;28;20034;-90
2022/03/11 05:38:09;;;;;;;13.45;8.05;;;;;;;3.65;49.23;101357.44;4971956;28;20264;-90
2022/03/11 05:40:35;;;;;;;13.90;8.38;;;;;;;3.61;48.84;101358.34;4982151;28;20381;-92
2022/03/11 05:43:00;;;;;;;13.50;8.65;;;;;;;3.67;48.79;101367.91;4984240;28;20325;-91
2022/03/11 05:45:25;;;;;;;13.07;8.13;;;;;;;3.65;48.84;101362.69;4986997;28;20031;-90
2022/03/11 05:47:50;;;;;;;15.32;8.40;;;;;;;3.56;48.88;101357.56;4987900;28;20122;-91
2022/03/11 05:50:17;;;;;;;12.52;8.15;;;;;;;3.58;49.92;101350.50;4990813;28;20031;-91
2022/03/11 05:52:42;;;;;;;14.00;8.50;;;;;;;3.58;49.54;101368.06;4990961;28;20062;-92
2022/03/11 05:55:08;;;;;;;14.65;8.57;;;;;;;3.59;49.27;101361.88;4988786;28;20130;-92
2022/03/11 05:57:34;;;;;;;12.82;7.80;;;;;;;3.62;49.47;101361.84;4983548;28;20035;-91
2022/03/11 06:00:00;;;;;;;15.85;8.60;;;;;;;3.63;49.35;101353.94;4983416;28;20037;-90
2022/03/11 06:02:25;;;;;;;16.02;8.25;;;;;;;3.68;49.27;101360.03;4989609;28;20160;-92
2022/03/11 06:04:50;;;;;;;13.52;8.63;;;;;;;3.66;49.46;101360.91;4988213;28;20030;-91
2022/03/11 06:07:16;;;;;;;14.93;8.15;;;;;;;3.67;49.81;101360.03;4990533;28;20197;-92
2022/03/11 06:09:41;;;;;;;16.65;8.80;;;;;;;3.66;50.01;101358.28;4990939;28;20042;-92
2022/03/11 06:12:07;;;;;;;13.32;8.23;;;;;;;3.66;49.78;101360.91;4988241;28;20386;-91
2022/03/11 06:14:32;;;;;;;12.93;8.02;;;;;;;3.69;49.67;101356.50;4988322;28;20030;-90
2022/03/11 06:16:58;;;;;;;12.63;8.18;;;;;;;3.72;49.72;101359.09;4989468;28;20022;-91
2022/03/11 06:19:23;;;;;;;11.55;8.05;;;;;;;3.74;50.01;101357.28;4982547;28;20030;-91
2022/03/11 06:21:48;;;;;;;14.50;8.07;;;;;;;3.70;50.03;101352.94;4986647;28;20109;-91
2022/03/11 06:24:14;;;;;;;14.35;8.40;;;;;;;3.70;50.18;101358.22;4987704;28;20038;-91
2022/03/11 06:26:40;;;;;;;13.55;8.85;;;;;;;3.75;50.24;101366.91;4988268;28;20097;-90
2022/03/11 06:29:06;;;;;;;12.85;8.57;;;;;;;3.77;50.41;101366.03;4990690;28;20038;-91
2022/03/11 06:31:31;;;;;;;16.40;8.73;;;;;;;3.79;50.25;101373.00;4988557;28;20043;-90
2022/03/11 06:33:58;;;;;;;13.40;8.98;;;;;;;3.81;50.17;101362.47;4989365;28;20085;-92
2022/03/11 06:36:23;;;;;;;15.20;8.55;;;;;;;3.76;50.53;101354.63;4982327;28;20022;-91
2022/03/11 06:38:48;;;;;;;12.38;8.20;;;;;;;3.81;50.46;101363.34;4988724;28;20030;-89
2022/03/11 06:41:14;;;;;;;15.82;8.75;;;;;;;3.84;50.83;101362.41;4988251;28;20023;-89
2022/03/11 06:43:39;;;;;;;14.32;8.65;;;;;;;3.86;50.95;101355.38;4982180;28;20040;-92
2022/03/11 06:46:05;;;;;;;15.93;9.13;;;;;;;3.83;51.37;101352.78;4980832;28;20052;-91
2022/03/11 06:48:30;;;;;;;15.38;8.45;;;;;;;3.85;50.97;101353.66;4990268;28;20061;-90
2022/03/11 06:50:55;;;;;;;15.05;8.60;;;;;;;3.97;50.71;101348.16;4988469;28;20035;-90
2022/03/11 06:53:25;;;;;;;13.80;8.95;;;;;;;4.25;50.34;101354.72;4990516;28;20349;-90
2022/03/11 06:55:51;;;;;;;12.40;8.18;;;;;;;4.42;49.85;101343.91;4976589;28;20041;-89
2022/03/11 06:58:16;;;;;;;15.00;9.27;;;;;;;4.71;48.94;101361.84;4971347;28;20035;-89
2022/03/11 07:00:41;;;;;;;18.60;9.32;;;;;;;4.86;49.00;101351.91;4977648;28;20030;-90
2022/03/11 07:03:07;;;;;;;18.23;8.80;;;;;;;4.92;48.30;101346.50;4972336;28;20030;-90
2022/03/11 07:05:32;;;;;;;15.45;9.57;;;;;;;4.91;48.48;101353.56;4983043;28;20545;-88
2022/03/11 07:07:57;;;;;;;15.98;8.82;;;;;;;4.82;49.06;101339.69;4989904;28;20030;-89
2022/03/11 07:10:23;;;;;;;18.60;10.18;;;;;;;4.72;49.35;101349.50;4990428;28;20440;-89
2022/03/11 07:12:48;;;;;;;15.43;9.38;;;;;;;4.66;49.09;101349.63;4990830;28;20113;-88
2022/03/11 07:15:13;;;;;;;14.75;9.18;;;;;;;4.63;49.71;101349.69;4988791;28;20396;-88
2022/03/11 07:17:39;;;;;;;15.52;9.70;;;;;;;4.61;49.51;101339.19;4991258;28;20039;-87
2022/03/11 07:20:05;;;;;;;15.57;9.27;;;;;;;4.61;49.51;101346.22;4983416;28;20116;-87
2022/03/11 07:22:32;;;;;;;21.38;10.23;;;;;;;4.62;49.63;101343.53;4992848;28;20026;-87
2022/03/11 07:24:58;;;;;;;14.98;9.30;;;;;;;4.62;50.00;101343.53;4985681;28;20038;-88
2022/03/11 07:27:24;;;;;;;15.15;9.73;;;;;;;4.63;50.15;101349.69;4979640;28;20026;-87
2022/03/11 07:29:50;;;;;;;18.33;9.82;;;;;;;4.65;49.85;101355.81;4987823;28;20034;-86
2022/03/11 07:32:17;;;;;;;15.48;9.43;;;;;;;4.64;50.34;101341.78;4992202;28;20033;-86
2022/03/11 07:34:42;;;;;;;16.95;9.68;;;;;;;4.70;49.71;101344.28;4980070;28;20031;-88
2022/03/11 07:37:11;;;;;;;16.58;9.85;;;;;;;4.73;49.86;101343.38;4977489;28;20141;-89
2022/03/11 07:39:40;;;;;;;15.75;10.23;;;;;;;4.75;49.77;101349.47;4991546;28;20112;-88
2022/03/11 07:42:05;;;;;;;17.75;9.95;;;;;;;4.74;49.49;101330.13;4989489;28;20384;-86
2022/03/11 07:44:32;;;;;;;17.60;9.90;;;;;;;4.85;49.58;101356.31;4980636;28;20039;-86
2022/03/11 07:46:57;;;;;;;19.38;10.73;;;;;;;4.91;49.27;101344.78;4982141;28;20445;-89
2022/03/11 07:49:23;;;;;;;16.02;10.63;;;;;;;4.95;49.17;101335.91;4990674;28;20057;-90
2022/03/11 07:51:48;;;;;;;16.45;10.27;;;;;;;4.96;49.09;101317.38;4990147;28;20377;-90
2022/03/11 07:54:14;;;;;;;16.35;10.38;;;;;;;5.10;48.86;101329.44;4988094;28;20022;-88
2022/03/11 07:56:40;;;;;;;18.25;10.23;;;;;;;5.15;48.68;101332.88;4974623;28;20034;-88
2022/03/11 07:59:06;;;;;;;18.88;10.25;;;;;;;5.21;48.65;101336.22;4971095;28;20373;-90
2022/03/11 08:01:31;;;;;;;15.77;10.38;;;;;;;5.28;48.59;101323.78;4973021;28;20748;-88
2022/03/11 08:03:56;;;;;;;15.88;10.15;;;;;;;5.32;48.46;101321.94;4988523;28;20049;-89
2022/03/11 08:06:22;;;;;;;16.02;10.27;;;;;;;5.37;48.29;101322.72;4990532;28;20054;-89
2022/03/11 08:08:47;;;;;;;17.02;10.38;;;;;;;5.41;48.29;101316.47;4990227;28;20038;-86
2022/03/11 08:11:14;;;;;;;17.45;10.48;;;;;;;5.47;47.82;101317.19;4990825;28;20026;-88
2022/03/11 08:13:39;;;;;;;17.30;10.30;;;;;;;5.54;47.72;101311.78;4986989;28;20042;-87
2022/03/11 08:16:06;;;;;;;20.27;11.75;;;;;;;5.62;47.66;101301.91;4987960;28;20033;-88
2022/03/11 08:18:32;;;;;;;18.27;11.20;;;;;;;5.86;47.45;101317.19;4990836;28;20026;-91
2022/03/11 08:20:57;;;;;;;21.58;10.68;;;;;;;6.19;46.88;101317.31;4990420;28;20133;-90
2022/03/11 08:23:22;;;;;;;16.58;10.43;;;;;;;6.70;46.17;101307.13;4988247;28;20177;-91
2022/03/11 08:25:48;;;;;;;17.15;11.20;;;;;;;7.39;44.28;101306.91;4989649;28;20026;-92
2022/03/11 08:28:14;;;;;;;19.23;10.90;;;;;;;7.98;42.64;101297.09;4983684;28;20027;-92
2022/03/11 08:30:40;;;;;;;18.40;11.20;;;;;;;8.64;41.73;101302.81;4972834;28;20027;-94
2022/03/11 08:33:06;;;;;;;20.85;11.30;;;;;;;9.46;40.12;101298.00;4986503;28;20500;-91
2022/03/11 08:35:32;;;;;;;17.00;10.60;;;;;;;10.03;38.50;101301.91;4988027;28;20040;-92
2022/03/11 08:37:57;;;;;;;19.38;11.13;;;;;;;10.48;37.92;101288.47;4982824;28;20388;-93
2022/03/11 08:40:24;;;;;;;17.05;10.80;;;;;;;11.03;36.98;101284.31;4974717;28;20030;-92
2022/03/11 08:42:53;;;;;;;17.77;11.23;;;;;;;11.34;36.02;101295.28;4983173;28;20444;-89
2022/03/11 08:45:22;;;;;;;16.58;10.90;;;;;;;11.63;35.59;101296.56;4990244;28;20096;-91
2022/03/11 08:47:48;;;;;;;21.52;11.40;;;;;;;12.09;34.47;101282.81;4985811;28;20432;-84
2022/03/11 08:50:14;;;;;;;18.73;11.30;;;;;;;12.46;34.25;101285.34;4990665;28;20034;-90
2022/03/11 08:52:40;;;;;;;19.95;11.50;;;;;;;12.68;33.23;101269.06;4988957;28;20032;-89
2022/03/11 08:55:07;;;;;;;19.98;12.15;;;;;;;12.86;33.40;101285.91;4990618;28;20045;-88
2022/03/11 08:57:32;;;;;;;17.95;11.40;;;;;;;13.18;32.63;101283.31;4978820;28;20027;-91
2022/03/11 08:59:57;;;;;;;20.63;11.23;;;;;;;13.74;32.22;101292.69;4989689;28;20023;-90
2022/03/11 09:02:23;;;;;;;17.40;11.60;;;;;;;14.05;31.53;101278.41;4974708;28;20024;-90
2022/03/11 09:04:49;;;;;;;19.58;12.38;;;;;;;14.48;30.67;101280.34;4975970;28;20019;-90
2022/03/11 09:07:14;;;;;;;17.83;11.55;;;;;;;14.49;30.35;101269.56;4982639;28;20039;-91
2022/03/11 09:09:40;;;;;;;19.85;11.80;;;;;;;14.53;30.32;101281.81;4970382;28;20033;-90
2022/03/11 09:12:06;;;;;;;19.52;11.27;;;;;;;14.80;30.25;101259.66;4970202;28;20027;-91
2022/03/11 09:14:31;;;;;;;15.40;11.15;;;;;;;15.03;29.67;101259.06;4973026;28;20035;-90
2022/03/11 09:16:57;;;;;;;17.73;11.07;;;;;;;15.07;29.57;101262.44;5004871;28;20040;-91
2022/03/11 09:19:23;;;;;;;15.85;11.68;;;;;;;15.58;29.04;101262.72;4984694;28;20440;-91
2022/03/11 09:21:48;;;;;;;19.77;12.50;;;;;;;15.96;28.40;101254.00;4983521;28;20106;-91
2022/03/11 09:24:14;;;;;;;18.38;12.20;;;;;;;16.32;27.63;101264.09;4987271;28;20562;-91
2022/03/11 09:26:39;;;;;;;19.63;12.23;;;;;;;16.58;27.34;101248.84;4990497;28;20109;-91
2022/03/11 09:29:06;;;;;;;16.63;11.50;;;;;;;16.89;27.21;101256.53;4972115;28;20365;-92
2022/03/11 09:31:31;;;;;;;19.75;11.18;;;;;;;17.14;26.76;101260.16;4982707;28;20085;-90
2022/03/11 09:33:57;;;;;;;17.80;11.77;;;;;;;17.05;27.11;101248.22;4978787;28;20428;-91
2022/03/11 09:36:22;;;;;;;17.38;11.30;;;;;;;16.83;26.76;101254.25;4974050;28;20031;-90
2022/03/11 09:38:47;;;;;;;16.25;11.40;;;;;;;17.04;27.06;101248.34;4983687;28;20050;-91
2022/03/11 09:41:14;;;;;;;18.65;11.70;;;;;;;16.95;26.91;101249.00;4988958;28;20052;-91
2022/03/11 09:43:39;;;;;;;19.15;11.88;;;;;;;17.03;26.98;101241.25;4987482;28;20030;-90
2022/03/11 09:46:06;;;;;;;18.50;11.77;;;;;;;17.72;26.47;101242.41;4989387;28;20019;-92
2022/03/11 09:48:32;;;;;;;17.55;11.35;;;;;;;18.06;25.66;101246.19;4988027;28;20038;-90
2022/03/11 09:50:58;;;;;;;17.48;11.57;;;;;;;18.17;25.86;101238.13;4977546;28;20035;-90
2022/03/11 09:53:24;;;;;;;19.80;11.60;;;;;;;18.69;25.05;101235.94;4980898;28;20077;-90
2022/03/11 09:55:49;;;;;;;18.73;11.63;;;;;;;19.28;24.93;101222.22;4989646;28;20097;-90
2022/03/11 09:58:15;;;;;;;19.35;12.73;;;;;;;19.85;23.74;101221.09;4987530;28;20025;-88
2022/03/11 10:00:40;;;;;;;20.27;12.85;;;;;;;20.46;23.42;101215.03;4987282;28;20030;-86
2022/03/11 10:03:05;;;;;;;15.88;11.40;;;;;;;20.66;23.05;101205.22;4982599;28;20034;-88
2022/03/11 10:05:48;;;;;;;18.52;11.43;;;;;;;20.68;23.90;101218.59;4987308;28;20832;-87
2022/03/11 10:08:13;;;;;;;16.65;11.43;;;;;;;21.05;22.38;101216.19;4987821;28;20022;-88
2022/03/11 10:10:39;;;;;;;18.90;12.32;;;;;;;21.53;22.31;101207.41;4978156;28;20356;-90
2022/03/11 10:13:07;;;;;;;17.17;11.60;;;;;;;21.90;21.36;101199.41;4978297;28;20466;-84
2022/03/11 10:15:32;;;;;;;17.77;11.48;;;;;;;21.46;22.10;101204.38;4985238;28;20018;-84
2022/03/11 10:18:02;;;;;;;18.33;12.35;;;;;;;21.82;22.20;101202.84;4989256;28;20030;-85
2022/03/11 10:20:28;;;;;;;15.35;11.63;;;;;;;21.97;21.55;101194.28;4986775;28;20109;-83
2022/03/11 10:22:53;;;;;;;16.63;11.82;;;;;;;21.46;21.92;101198.97;4985590;28;20026;-84
2022/03/11 10:25:23;;;;;;;14.13;10.90;;;;;;;21.55;21.99;101190.00;4993051;28;20129;-92
2022/03/11 10:28:02;;;;;;;16.17;11.85;;;;;;;21.52;22.33;101194.81;4996362;28;20278;-89
2022/03/11 10:30:30;;;;;;;17.67;11.65;;;;;;;21.64;21.85;101186.41;4978673;28;20041;-86
2022/03/11 10:32:57;;;;;;;16.23;11.60;;;;;;;21.67;21.59;101179.88;4987276;28;20022;-95
2022/03/11 10:35:49;;;;;;;16.00;11.15;;;;;;;22.50;21.66;101174.81;4994272;28;20026;-85
2022/03/11 10:38:25;;;;;;;15.98;11.32;;;;;;;22.15;21.58;101173.59;4992857;28;20124;-96
2022/03/11 10:40:53;;;;;;;16.95;11.10;;;;;;;21.77;21.70;101169.88;4972686;28;20033;-87
2022/03/11 10:43:25;;;;;;;13.20;11.18;;;;;;;21.79;22.06;101172.47;4973352;28;20035;-90
2022/03/11 10:46:06;;;;;;;18.80;11.30;;;;;;;22.62;21.33;101160.09;4988337;28;20033;-89
2022/03/11 10:48:53;;;;;;;18.75;11.50;;;;;;;23.24;20.66;101171.22;4985017;28;20092;-88
2022/03/11 10:51:18;;;;;;;17.90;12.20;;;;;;;23.67;20.21;101161.53;4990386;28;20034;-90
2022/03/11 10:53:49;;;;;;;19.92;12.63;;;;;;;23.82;20.22;101149.06;4980429;28;20038;-92
2022/03/11 10:56:24;;;;;;;16.35;12.02;;;;;;;23.98;20.34;101153.81;4987764;28;20034;-91
2022/03/11 10:58:49;;;;;;;15.25;11.98;;;;;;;23.70;19.32;101147.59;4993388;28;20026;-92
2022/03/11 11:01:16;;;;;;;15.13;11.63;;;;;;;23.65;19.60;101142.66;4993010;28;20047;-89
2022/03/11 11:03:41;;;;;;;18.58;12.52;;;;;;;23.85;19.90;101149.63;4992232;28;20092;-91
2022/03/11 11:06:07;;;;;;;21.60;12.98;;;;;;;24.67;18.87;101146.66;4985995;28;20039;-89
2022/03/11 11:08:33;;;;;;;19.08;12.82;;;;;;;24.60;18.65;101149.16;4990245;28;20085;-90
2022/03/11 11:10:59;;;;;;;16.52;12.25;;;;;;;24.60;19.18;101138.28;4974842;28;20058;-90
2022/03/11 11:13:24;;;;;;;15.82;11.52;;;;;;;25.10;18.83;101156.56;4980209;28;20046;-93
2022/03/11 11:15:52;;;;;;;16.35;11.65;;;;;;;25.29;18.67;101139.06;4987884;28;20388;-89